Rainbow, Texas
Current Conditions -  °F | °C
As of 3:15 AM on Friday 19 Dec 2014 (Local Time) from KGDJ Reporting Station
Haze Haze  
Wind Chill: 45°   Ceiling: 600
Heat Index: 47°   Visibility: 5mi
Dew Point: 45°   Wind: 5mph
Humidity: 90%   Direction: 330°NNW
Pressure: 30.18"   Gusts: NA
Location:  32.27°N, 97.7°W
Report Text: KGDJ 190915Z AUTO 33004KT 5SM BR OVC006 09/07 A3018 RMK AO2 LTG DSNT SW T00850070
Loading
Personal Weather Stations






























Interactive Weather Map New forecast layout! Learn more

10-Day Weather Forecast

Advertisements
Track Severe Weather on mobile